createdAt,value
2022-11-13T00:03:06.210Z,9.43
2022-11-13T00:07:15.547Z,9.77
2022-11-13T00:11:26.216Z,8.90
2022-11-13T00:15:35.557Z,9.70
2022-11-13T00:19:44.742Z,9.73
2022-11-13T00:23:54.334Z,9.80
2022-11-13T00:28:04.983Z,9.80
2022-11-13T00:32:14.301Z,10.20
2022-11-13T00:36:26.438Z,8.77
2022-11-13T00:40:36.281Z,9.43
2022-11-13T00:44:46.746Z,9.40
2022-11-13T00:48:55.998Z,8.33
2022-11-13T00:53:05.075Z,8.73
2022-11-13T00:57:14.220Z,10.00
2022-11-13T01:01:24.893Z,9.33
2022-11-13T01:05:43.540Z,9.60
2022-11-13T01:09:53.256Z,9.67
2022-11-13T01:14:02.442Z,11.00
2022-11-13T01:18:13.725Z,9.67
2022-11-13T01:22:22.874Z,9.33
2022-11-13T01:26:33.614Z,10.43
2022-11-13T01:30:42.626Z,8.93
2022-11-13T01:34:53.339Z,9.00
2022-11-13T01:39:02.407Z,8.80
2022-11-13T01:43:25.358Z,9.00
2022-11-13T01:47:34.518Z,8.20
2022-11-13T01:51:49.572Z,8.83
2022-11-13T01:55:58.734Z,8.73
2022-11-13T02:00:11.629Z,8.27
2022-11-13T02:04:20.561Z,8.23
2022-11-13T02:08:32.489Z,8.73
2022-11-13T02:12:44.800Z,8.47
2022-11-13T02:16:58.411Z,8.80
2022-11-13T02:21:18.030Z,8.20
2022-11-13T02:25:32.027Z,8.50
2022-11-13T02:29:41.280Z,8.83
2022-11-13T02:33:50.619Z,8.63
2022-11-13T02:38:06.302Z,7.73
2022-11-13T02:42:16.914Z,7.87
2022-11-13T02:46:26.252Z,7.30
2022-11-13T02:50:36.232Z,8.03
2022-11-13T02:54:45.480Z,8.20
2022-11-13T02:58:56.419Z,7.80
2022-11-13T03:03:05.632Z,8.77
2022-11-13T03:07:15.064Z,8.33
2022-11-13T03:11:24.283Z,8.33
2022-11-13T03:15:36.731Z,8.73
2022-11-13T03:19:46.222Z,8.60
2022-11-13T03:23:56.609Z,7.70
2022-11-13T03:28:06.043Z,8.07
2022-11-13T03:32:16.668Z,8.70
2022-11-13T03:36:25.814Z,8.73
2022-11-13T03:40:34.941Z,7.63
2022-11-13T03:44:44.227Z,8.70
2022-11-13T03:48:54.966Z,9.10
2022-11-13T03:53:04.245Z,8.23
2022-11-13T03:57:13.453Z,8.17
2022-11-13T04:01:22.660Z,8.20
2022-11-13T04:05:33.580Z,8.23
2022-11-13T04:09:42.885Z,8.03
2022-11-13T04:13:51.978Z,7.77
2022-11-13T04:18:01.241Z,8.13
2022-11-13T04:22:12.012Z,8.67
2022-11-13T04:26:21.222Z,9.00
2022-11-13T04:30:30.483Z,7.70
2022-11-13T04:34:40.649Z,8.67
2022-11-13T04:38:51.244Z,7.93
2022-11-13T04:43:00.480Z,8.03
2022-11-13T04:47:10.182Z,8.70
2022-11-13T04:51:19.823Z,8.33
2022-11-13T04:55:30.317Z,8.17
2022-11-13T04:59:40.248Z,8.13
2022-11-13T05:03:49.797Z,7.93
2022-11-13T05:07:59.146Z,8.40
2022-11-13T05:12:10.348Z,8.80
2022-11-13T05:16:19.426Z,7.83
2022-11-13T05:20:28.698Z,8.70
2022-11-13T05:24:37.821Z,8.07
2022-11-13T05:28:48.718Z,8.60
2022-11-13T05:32:58.301Z,8.23
2022-11-13T05:37:07.639Z,7.77
2022-11-13T05:41:18.287Z,8.83
2022-11-13T05:45:29.270Z,8.23
2022-11-13T05:49:38.347Z,8.60
2022-11-13T05:53:48.455Z,8.70
2022-11-13T05:57:57.613Z,8.67
2022-11-13T06:02:08.290Z,8.47
2022-11-13T06:06:19.304Z,8.77
2022-11-13T06:10:28.623Z,8.47
2022-11-13T06:14:37.988Z,8.47
2022-11-13T06:18:49.366Z,8.60
2022-11-13T06:23:00.174Z,7.70
2022-11-13T06:27:09.261Z,9.17
2022-11-13T06:31:20.391Z,8.97
2022-11-13T06:35:31.509Z,9.10
2022-11-13T06:39:40.776Z,8.40
2022-11-13T06:43:50.247Z,8.57
2022-11-13T06:47:59.517Z,8.87
2022-11-13T06:52:10.235Z,8.87
2022-11-13T06:56:19.926Z,8.53
2022-11-13T07:00:33.685Z,8.20
2022-11-13T07:04:45.668Z,8.83
2022-11-13T07:08:56.163Z,8.13
2022-11-13T07:13:05.135Z,8.23
2022-11-13T07:17:14.105Z,8.83
2022-11-13T07:21:24.213Z,8.87
2022-11-13T07:25:35.773Z,9.57
2022-11-13T07:29:44.867Z,8.87
2022-11-13T07:33:53.936Z,9.17
2022-11-13T07:38:03.062Z,8.47
2022-11-13T07:42:13.917Z,8.90
2022-11-13T07:46:23.004Z,9.20
2022-11-13T07:50:33.663Z,8.10
2022-11-13T07:54:43.148Z,8.60
2022-11-13T07:58:53.930Z,8.10
2022-11-13T08:03:07.394Z,8.00
2022-11-13T08:07:16.627Z,9.20
2022-11-13T08:11:26.321Z,8.70
2022-11-13T08:15:37.381Z,8.03
2022-11-13T08:19:46.383Z,8.20
2022-11-13T08:23:55.322Z,8.77
2022-11-13T08:28:08.744Z,8.63
2022-11-13T08:32:23.221Z,8.27
2022-11-13T08:36:32.259Z,8.50
2022-11-13T08:40:41.860Z,9.13
2022-11-13T08:44:50.855Z,8.03
2022-11-13T08:49:01.542Z,8.30
2022-11-13T08:53:11.326Z,8.10
2022-11-13T08:57:21.846Z,8.33
2022-11-13T09:01:31.901Z,7.93
2022-11-13T09:05:43.019Z,8.70
2022-11-13T09:09:52.270Z,7.10
2022-11-13T09:14:01.596Z,7.80
2022-11-13T09:18:12.410Z,7.77
2022-11-13T09:22:23.031Z,8.23
2022-11-13T09:26:31.963Z,7.53
2022-11-13T09:30:42.334Z,7.60
2022-11-13T09:34:51.217Z,7.03
2022-11-13T09:39:01.828Z,7.30
2022-11-13T09:43:25.218Z,7.40
2022-11-13T09:47:41.350Z,7.57
2022-11-13T09:51:54.605Z,7.43
2022-11-13T09:56:15.471Z,7.87
2022-11-13T10:00:25.163Z,6.97
2022-11-13T10:04:42.972Z,6.57
2022-11-13T10:08:57.829Z,6.93
2022-11-13T10:13:12.080Z,6.60
2022-11-13T10:17:26.852Z,6.20
2022-11-13T10:21:44.407Z,6.73
2022-11-13T10:25:54.699Z,6.93
2022-11-13T10:30:06.275Z,6.33
2022-11-13T10:34:16.127Z,6.37
2022-11-13T10:38:29.791Z,7.50
2022-11-13T10:42:42.346Z,6.87
2022-11-13T10:46:52.973Z,6.57
2022-11-13T10:51:04.874Z,6.87
2022-11-13T10:55:24.693Z,7.03
2022-11-13T10:59:41.989Z,7.00
2022-11-13T11:03:52.927Z,8.83
2022-11-13T11:08:03.195Z,7.53
2022-11-13T11:12:19.201Z,6.80
2022-11-13T11:16:29.221Z,7.10
2022-11-13T11:20:45.343Z,7.60
2022-11-13T11:25:00.127Z,7.57
2022-11-13T11:29:19.222Z,7.83
2022-11-13T11:33:33.842Z,6.70
2022-11-13T11:37:53.351Z,6.93
2022-11-13T11:42:11.922Z,7.23
2022-11-13T11:46:25.468Z,7.13
2022-11-13T11:50:40.364Z,7.23
2022-11-13T11:55:00.451Z,7.40
2022-11-13T11:59:27.855Z,7.40
2022-11-13T12:04:01.069Z,6.77
2022-11-13T12:08:20.918Z,6.97
2022-11-13T12:12:46.309Z,7.23
2022-11-13T12:17:16.739Z,7.30
2022-11-13T12:21:29.983Z,7.37
2022-11-13T12:25:44.066Z,6.47
2022-11-13T12:30:06.098Z,6.57
2022-11-13T12:34:24.977Z,6.73
2022-11-13T12:38:41.009Z,6.40
2022-11-13T12:42:53.376Z,5.73
2022-11-13T12:47:04.542Z,5.73
2022-11-13T12:51:15.509Z,6.10
2022-11-13T12:55:29.949Z,5.07
2022-11-13T12:59:42.894Z,5.67
2022-11-13T13:04:15.379Z,5.67
2022-11-13T13:08:52.584Z,5.27
2022-11-13T13:13:11.940Z,5.40
2022-11-13T13:17:24.197Z,5.37
2022-11-13T13:21:42.639Z,4.33
2022-11-13T13:25:52.298Z,5.13
2022-11-13T13:30:01.500Z,4.43
2022-11-13T13:34:24.186Z,5.17
2022-11-13T13:38:41.301Z,4.50
2022-11-13T13:43:15.763Z,4.47
2022-11-13T13:47:28.989Z,5.07
2022-11-13T13:51:43.891Z,5.10
2022-11-13T13:55:57.646Z,5.10
2022-11-13T14:00:11.863Z,4.37
2022-11-13T14:04:23.595Z,5.13
2022-11-13T14:08:32.761Z,5.20
2022-11-13T14:12:45.499Z,5.30
2022-11-13T14:16:55.904Z,4.33
2022-11-13T14:21:08.010Z,4.90
2022-11-13T14:25:24.142Z,4.73
2022-11-13T14:29:39.579Z,5.57
2022-11-13T14:33:51.107Z,5.00
2022-11-13T14:38:00.999Z,4.83
2022-11-13T14:42:18.507Z,5.50
2022-11-13T14:46:36.264Z,5.47
2022-11-13T14:50:53.429Z,4.97
2022-11-13T14:55:19.299Z,5.83
2022-11-13T14:59:30.127Z,4.97
2022-11-13T15:03:40.606Z,4.80
2022-11-13T15:07:50.350Z,5.07
2022-11-13T15:12:00.138Z,6.00
2022-11-13T15:16:13.620Z,5.47
2022-11-13T15:20:27.752Z,5.10
2022-11-13T15:24:36.989Z,6.03
2022-11-13T15:28:46.258Z,5.80
2022-11-13T15:32:57.600Z,5.37
2022-11-13T15:37:14.341Z,5.83
2022-11-13T15:41:25.942Z,5.33
2022-11-13T15:45:39.893Z,5.60
2022-11-13T15:50:12.248Z,5.07
2022-11-13T15:54:27.278Z,4.70
2022-11-13T15:58:36.298Z,5.80
2022-11-13T16:02:46.001Z,5.57
2022-11-13T16:06:56.437Z,5.53
2022-11-13T16:11:07.905Z,5.27
2022-11-13T16:15:18.318Z,6.57
2022-11-13T16:19:27.656Z,5.90
2022-11-13T16:23:36.664Z,5.80
2022-11-13T16:27:47.842Z,6.00
2022-11-13T16:31:57.001Z,6.33
2022-11-13T16:36:11.651Z,5.67
2022-11-13T16:40:24.105Z,5.80
2022-11-13T16:44:34.710Z,6.27
2022-11-13T16:48:43.733Z,6.47
2022-11-13T16:52:52.842Z,6.07
2022-11-13T16:57:01.862Z,5.53
2022-11-13T17:01:17.183Z,5.67
2022-11-13T17:05:26.355Z,5.33
2022-11-13T17:09:35.309Z,6.33
2022-11-13T17:13:44.336Z,7.27
2022-11-13T17:17:58.802Z,6.30
2022-11-13T17:22:07.854Z,5.97
2022-11-13T17:26:16.798Z,6.57
2022-11-13T17:30:25.909Z,5.57
2022-11-13T17:34:36.916Z,5.50
2022-11-13T17:38:45.919Z,6.13
2022-11-13T17:42:54.802Z,6.43
2022-11-13T17:47:03.922Z,6.57
2022-11-13T17:51:15.299Z,6.87
2022-11-13T17:55:24.449Z,6.50
2022-11-13T17:59:33.395Z,6.63
2022-11-13T18:03:42.593Z,6.07
2022-11-13T18:07:53.213Z,7.33
2022-11-13T18:12:02.292Z,6.57
2022-11-13T18:16:13.228Z,7.30
2022-11-13T18:20:22.365Z,6.80
2022-11-13T18:24:32.931Z,7.20
2022-11-13T18:28:42.686Z,6.83
2022-11-13T18:32:51.826Z,6.40
2022-11-13T18:37:01.163Z,6.50
2022-11-13T18:41:13.766Z,6.73
2022-11-13T18:45:22.971Z,7.40
2022-11-13T18:49:31.918Z,6.23
2022-11-13T18:53:41.564Z,7.97
2022-11-13T18:57:52.490Z,7.13
2022-11-13T19:02:02.224Z,7.43
2022-11-13T19:06:15.339Z,7.23
2022-11-13T19:10:24.830Z,7.20
2022-11-13T19:14:35.587Z,7.30
2022-11-13T19:18:46.347Z,7.23
2022-11-13T19:22:55.523Z,7.20
2022-11-13T19:27:05.228Z,7.00
2022-11-13T19:31:18.411Z,6.70
2022-11-13T19:35:28.240Z,7.30
2022-11-13T19:39:37.904Z,7.07
2022-11-13T19:43:48.443Z,6.80
2022-11-13T19:47:59.276Z,7.27
2022-11-13T19:52:08.777Z,7.47
2022-11-13T19:56:19.410Z,6.53
2022-11-13T20:00:28.634Z,7.60
2022-11-13T20:04:39.316Z,8.50
2022-11-13T20:08:48.569Z,7.63
2022-11-13T20:12:57.625Z,6.90
2022-11-13T20:17:06.795Z,7.30
2022-11-13T20:21:17.507Z,7.43
2022-11-13T20:25:26.760Z,7.80
2022-11-13T20:29:35.915Z,8.53
2022-11-13T20:33:45.185Z,7.90
2022-11-13T20:37:55.789Z,8.43
2022-11-13T20:42:05.136Z,8.33
2022-11-13T20:46:15.672Z,7.80
2022-11-13T20:50:24.751Z,7.53
2022-11-13T20:54:35.873Z,7.57
2022-11-13T20:58:45.322Z,7.53
2022-11-13T21:02:54.547Z,7.03
2022-11-13T21:07:03.757Z,6.83
2022-11-13T21:11:19.189Z,7.50
2022-11-13T21:15:28.415Z,7.60
2022-11-13T21:19:37.479Z,7.13
2022-11-13T21:23:47.046Z,6.63
2022-11-13T21:27:57.843Z,6.90
2022-11-13T21:32:07.505Z,6.67
2022-11-13T21:36:18.526Z,7.70
2022-11-13T21:40:27.614Z,6.73
2022-11-13T21:44:38.344Z,6.67
2022-11-13T22:39:13.007Z,7.20
2022-11-13T22:43:13.736Z,7.60
2022-11-13T22:47:22.778Z,7.23
2022-11-13T22:51:35.318Z,6.90
2022-11-13T22:55:44.467Z,8.00
2022-11-13T22:59:55.247Z,7.77
2022-11-13T23:04:07.272Z,7.77
2022-11-13T23:08:16.795Z,8.23
2022-11-13T23:12:27.582Z,7.73
2022-11-13T23:16:38.558Z,7.63
2022-11-13T23:20:49.009Z,7.80
2022-11-13T23:24:58.191Z,7.90
2022-11-13T23:29:07.338Z,8.10
2022-11-13T23:33:18.153Z,7.67
2022-11-13T23:37:27.325Z,8.57
2022-11-13T23:41:39.238Z,8.47
2022-11-13T23:45:48.344Z,8.77
2022-11-13T23:49:58.819Z,8.77
2022-11-13T23:54:08.003Z,7.67
2022-11-13T23:58:18.161Z,7.70
